ADDS METAR Data INFO
IDs: Format: Raw Decoded Include TAF

Data at: 1233 UTC 25 Jul 2017

KGCC 251153Z AUTO 20004KT 10SM CLR 15/11 A2999 RMK AO2 SLP098 T01500111 10233 20144 53007 TSNO
KGCC 251053Z AUTO 30004KT 10SM CLR 16/11 A2997 RMK AO2 SLP090 T01610111 TSNO
KGCC 250953Z AUTO 30004KT 10SM CLR 17/11 A2997 RMK AO2 SLP090 T01670106 TSNO
KGCC 250853Z AUTO 33005KT 10SM CLR 19/10 A2996 RMK AO2 SLP086 T01890100 56001 TSNO
KGCC 250753Z AUTO 29006KT 10SM CLR 18/11 A2997 RMK AO2 SLP089 T01780106 TSNO
KGCC 250653Z AUTO VRB03KT 10SM CLR 21/10 A2996 RMK AO2 SLP084 T02060100 403720133 TSNO
KGCC 250553Z AUTO 34005KT 10SM CLR 23/09 A2997 RMK AO2 SLP084 T02330089 10361 20189 53016 TSNO
KGCC 250453Z AUTO 00000KT 10SM CLR 20/10 A2993 RMK AO2 SLP076 T02000100 TSNO
KGCC 250353Z AUTO 00000KT 10SM CLR 20/11 A2994 RMK AO2 SLP082 T02000106 TSNO
KGCC 250253Z AUTO 35003KT 10SM CLR 26/08 A2991 RMK AO2 SLP071 T02610078 53008 TSNO
KGCC 250153Z AUTO 03014KT 10SM CLR 31/06 A2990 RMK AO2 SLP064 T03110061 TSNO
KGCC 250053Z AUTO 03008KT 10SM CLR 35/02 A2988 RMK AO2 SLP060 T03500022 TSNO
KGCC 242353Z AUTO 01014G18KT 10SM CLR 36/02 A2989 RMK AO2 SLP062 T03610022 10372 20339 56010 TSNO
KGCC 242253Z AUTO 03005KT 10SM CLR 37/02 A2989 RMK AO2 SLP063 T03670017 TSNO
KGCC 242153Z AUTO 22007KT 10SM CLR 36/02 A2990 RMK AO2 SLP067 T03610017 TSNO
KGCC 242053Z AUTO 28007G14KT 250V320 10SM CLR 36/01 A2992 RMK AO2 SLP071 T03560011 56007 TSNO
KGCC 241953Z AUTO 30007KT 10SM CLR 36/02 A2992 RMK AO2 SLP072 T03560017 TSNO
KGCC 241853Z AUTO 10SM CLR 35/02 A2993 RMK AO2 SLP075 T03500017 TSNO
KGCC 241753Z AUTO 27009G16KT 8SM FEW023 34/03 A2994 RMK AO2 SLP076 T03390028 10339 20156 53003 TSNO
KGCC 241728Z AUTO 29010KT 4SM HZ FEW014 SCT020 34/04 A2994 RMK AO2 T03390039 TSNO
KGCC 241720Z AUTO 28013G17KT 5SM HZ FEW014 BKN020 33/04 A2993 RMK AO2 T03330039 TSNO
KGCC 241653Z AUTO 25012KT 10SM CLR 33/04 A2993 RMK AO2 SLP073 T03330044 TSNO
KGCC 241553Z AUTO 25014KT 10SM CLR 29/09 A2993 RMK AO2 SLP072 T02940094 TSNO
KGCC 241453Z AUTO 25016KT 10SM CLR 26/13 A2993 RMK AO2 SLP075 T02560128 50002 TSNO
KGCC 241353Z AUTO 25008KT 10SM CLR 23/13 A2994 RMK AO2 SLP077 T02280133 TSNO
KGCC 241253Z AUTO 00000KT 10SM CLR 17/14 A2994 RMK AO2 SLP082 T01720139 TSNO $
KGCC 241153Z AUTO 15004KT 10SM CLR 16/13 A2993 RMK AO2 SLP079 70013 T01610128 10222 20133 58003 TSNO $
KGCC 241053Z AUTO 21004KT 10SM CLR 14/13 A2993 RMK AO2 SLP084 T01390128 TSNO $
KGCC 240953Z AUTO 20004KT 10SM CLR 14/13 A2993 RMK AO2 SLP081 T01440133 TSNO $
KGCC 240853Z AUTO 02003KT 10SM CLR 17/12 A2994 RMK AO2 SLP080 T01720122 58010 TSNO $
KGCC 240753Z AUTO 05004KT 10SM CLR 17/14 A2995 RMK AO2 SLP086 T01720139 TSNO $
KGCC 240653Z AUTO 08005KT 10SM CLR 19/13 A2997 RMK AO2 SLP090 T01940133 403560122 TSNO $
KGCC 240553Z AUTO 07009KT 10SM CLR 22/13 A2997 RMK AO2 RAB0456E13 SLP090 P0000 60013 T02220133 10344 20211 50009 TSNO $
KGCC 240506Z AUTO 13006G15KT 10SM -RA SCT047 SCT095 BKN110 22/14 A2996 RMK AO2 RAB0456 P0000 T02170139 TSNO $
KGCC 240453Z AUTO 17013KT 2 1/2SM HZ 23/12 A3000 RMK AO2 PK WND 23047/0432 RAB32E45 SLP099 P0013 T02330122 TSNO $
KGCC 240443Z AUTO 07008G33KT 4SM -RA 23/10 A2998 RMK AO2 PK WND 23047/0432 RAB32 P0013 T02330100 TSNO $
KGCC 240433Z AUTO 25033G47KT 1 1/2SM -RA SQ 25/10 A3002 RMK AO2 PK WND 23047/0432 RAB32 PRESRR P0000 T02500100 TSNO $
KGCC 240353Z AUTO 13011KT 10SM CLR 28/06 A2995 RMK AO2 SLP080 T02830061 TSNO $
KGCC 240253Z AUTO 14009KT 10SM FEW110 30/06 A2994 RMK AO2 SLP078 T03000056 55008 TSNO $
KGCC 240153Z AUTO 14011KT 10SM CLR 32/05 A2994 RMK AO2 SLP076 T03170050 TSNO $
KGCC 240053Z AUTO 13012KT 10SM CLR 33/05 A2995 RMK AO2 SLP083 T03280050 TSNO $